• Join FlightAware (Why Join?)
  • Login
  • US Flag 
02:12AM EDT


 

Airport Tracker/Info


-or-


 

Live Flight TrackerFlight Track Log ✈ N600TR ✈ 24-Aug-2013 ✈ KDTW - KORD

Flight Track Log - Related Links

Times and Time Zones

All times are in EDT time to prevent confusion due to time zone crossing. See the N600TR flight status page for this flight to view local times or setup timezone preferences in your user account.

Time Position Orientation Groundspeed Altitude Reporting Facility
EDT Latitude Longitude Course Direction KTS MPH feet Rate Location/Type
12:46PM 42.2072 -83.3531 292° West 146 168 1,400  Level Cleveland Center
12:48PM 42.1572 -83.4175 224° Southwest 216 249 4,300 2,100 Climbing Cleveland Center
12:49PM 42.1294 -83.4886 242° Southwest 262 302 6,200 2,220 Climbing Cleveland Center
12:50PM 42.3359 -83.8806 292° West  Level FlightAware Approximate
12:50PM 42.1667 -83.5811 299° West 276 318 8,900  Level Cleveland Center
12:51PM 42.3750 -84.0111 292° West  Level FlightAware Approximate
12:51PM 42.2075 -83.6731 301° West 281 323 10,600  Level Cleveland Center
12:52PM 42.4142 -84.1417 292° West  Level FlightAware Approximate
12:52PM 42.2511 -83.7725 301° West 304 350 12,400  Level Cleveland Center
12:53PM 42.2975 -83.8806 300° West 329 379 15,100 2,280 Climbing Cleveland Center
12:54PM 42.3431 -83.9894 300° West 333 383 17,200 1,920 Climbing Cleveland Center
12:55PM 42.3922 -84.1067 300° West 355 409 19,100 2,100 Climbing Cleveland Center
12:56PM 42.4231 -84.2644 285° West 373 429 21,600 1,980 Climbing Cleveland Center
12:57PM 42.4111 -84.4061 264° West 380 437 23,300 1,740 Climbing Cleveland Center
12:58PM 42.4100 -84.5111 269° West 390 449 24,600 1,560 Climbing Chicago Center
12:59PM 42.4069 -84.6600 268° West 395 455 26,000 1,320 Climbing Chicago Center
01:00PM 42.4072 -84.8147 270° West 408 470 27,400 960 Climbing Chicago Center
01:01PM 42.4092 -84.9714 271° West 416 479 28,000 240 Climbing Chicago Center
01:02PM 42.4111 -85.1306 271° West 422 486 28,000  Level Chicago Center
01:03PM 42.4228 -85.2881 276° West 423 487 28,000 -420 Level Chicago Center
01:04PM 42.4383 -85.4450 278° West 422 486 27,200 -1,800 Descending Chicago Center
01:05PM 42.4533 -85.6200 277° West 393 452 24,300 -2,880 Descending Chicago Center
01:06PM 42.4678 -85.7594 278° West 378 435 21,400 -2,100 Descending Chicago Center
01:07PM 42.4731 -85.9006 273° West 375 432 20,100 -720 Descending Chicago Center
01:08PM 42.4628 -86.0453 265° West 383 441 20,000 -60 Descending Chicago Center
01:09PM 42.4725 -86.1997 275° West 417 480 20,000  Level Chicago Center
01:10PM 42.4808 -86.3531 274° West 416 479 20,000 -900 Level Chicago Center
01:11PM 42.4739 -86.4994 266° West 395 455 18,200 -1,860 Descending Chicago Center
01:12PM 42.4694 -86.6772 268° West 394 453 16,300 -1,800 Descending Chicago Center
01:13PM 42.4706 -86.8194 271° West 384 442 14,600 -1,620 Descending Chicago Center
01:14PM 42.4725 -86.9592 271° West 375 432 13,000 -1,620 Descending Chicago Center
01:15PM 42.4494 -87.0864 256° West 371 427 11,300 -1,260 Descending Chicago Center
01:16PM 42.4194 -87.2053 251° West 341 392 10,400 -960 Descending Chicago Center
01:17PM 42.3981 -87.3008 253° West 276 318 9,400 -720 Descending Chicago Center
01:18PM 42.3664 -87.3733 239° Southwest 273 314 9,000 -960 Descending Chicago Center
01:19PM 42.2819 -87.3642 175° South 256 295 7,500 -1,020 Descending Chicago Center
01:20PM 42.2131 -87.3572 176° South 254 292 7,000 -300 Descending Chicago Center
01:21PM 42.1478 -87.3525 177° South 239 275 7,000  Level Chicago Center
01:22PM 42.0800 -87.3475 177° South 242 278 7,000  Level Chicago Center
01:23PM 42.0342 -87.4081 224° Southwest 255 293 7,000 -300 Level Chicago Center
01:24PM 41.9992 -87.4806 237° Southwest 234 269 6,500 -900 Descending Chicago Center
01:26PM 41.9817 -87.5808 257° West 234 269 5,200 -1,260 Descending Chicago Center
01:26PM 41.9833 -87.6500 272° West 222 255 4,300 -1,200 Descending Chicago TRACON
01:27PM 41.9833 -87.7167 270° West 210 242 3,100 -1,140 Descending Chicago TRACON
01:28PM 41.9833 -87.8000 270° West 185 213 2,100 -960 Descending Chicago TRACON
01:29PM 41.9833 -87.8500 270° West 144 166 1,200 -900 Descending Chicago TRACON